Time;durP1;ratioP1;P1;durP2;ratioP2;P2;SDS_P1;SDS_P2;PMS_P1;PMS_P2;Temp;Humidity;BMP_temperature;BMP_pressure;BME280_temperature;BME280_humidity;BME280_pressure;Samples;Min_cycle;Max_cycle;Signal;HPM_P1;HPM_P2
2021/10/26 00:02:01;;;;;;;23.25;17.80;;;12.30;99.90;;;;;;5068761;28;20220;-71
2021/10/26 00:04:29;;;;;;;20.38;16.17;;;12.20;99.90;;;;;;5066609;28;20668;-70
2021/10/26 00:06:56;;;;;;;19.35;17.25;;;12.10;99.90;;;;;;5068737;28;20224;-71
2021/10/26 00:09:23;;;;;;;24.48;19.00;;;12.10;99.90;;;;;;5067179;28;20206;-71
2021/10/26 00:11:52;;;;;;;22.52;18.92;;;12.00;99.90;;;;;;5059731;28;20225;-72
2021/10/26 00:14:19;;;;;;;23.30;18.05;;;11.90;99.90;;;;;;5067545;28;20578;-71
2021/10/26 00:16:47;;;;;;;25.52;19.58;;;11.90;99.90;;;;;;5066323;28;20217;-71
2021/10/26 00:19:14;;;;;;;19.95;17.85;;;11.90;99.90;;;;;;5062021;28;20204;-71
2021/10/26 00:21:41;;;;;;;26.08;17.27;;;11.90;99.90;;;;;;5054067;28;20208;-71
2021/10/26 00:24:16;;;;;;;22.33;19.80;;;11.90;99.90;;;;;;5070568;28;20247;-71
2021/10/26 00:26:44;;;;;;;28.88;20.42;;;11.80;99.90;;;;;;5061343;28;20633;-71
2021/10/26 00:29:13;;;;;;;24.17;20.65;;;11.80;99.90;;;;;;5064928;28;20579;-71
2021/10/26 00:31:40;;;;;;;28.10;20.83;;;11.80;99.90;;;;;;5067335;28;20195;-68
2021/10/26 00:34:07;;;;;;;28.35;20.20;;;11.90;99.90;;;;;;5070013;28;20201;-71
2021/10/26 00:36:34;;;;;;;23.73;19.55;;;11.90;99.90;;;;;;5071073;28;20218;-70
2021/10/26 00:39:01;;;;;;;26.08;19.70;;;11.90;99.90;;;;;;5066690;28;20201;-71
2021/10/26 00:41:30;;;;;;;32.25;22.67;;;11.80;99.90;;;;;;5057124;28;20641;-71
2021/10/26 00:43:57;;;;;;;30.02;19.75;;;11.80;99.90;;;;;;5066923;28;20207;-71
2021/10/26 00:46:30;;;;;;;28.13;20.73;;;11.80;99.90;;;;;;5069615;28;20214;-71
2021/10/26 00:48:59;;;;;;;27.38;19.88;;;11.90;99.90;;;;;;5069359;28;20201;-71
2021/10/26 00:51:28;;;;;;;30.90;22.17;;;11.90;99.90;;;;;;5066989;28;20585;-72
2021/10/26 00:53:56;;;;;;;30.83;24.23;;;11.80;99.90;;;;;;5070044;28;20247;-71
2021/10/26 00:56:24;;;;;;;27.67;21.08;;;11.90;99.90;;;;;;5063379;28;20223;-71
2021/10/26 00:58:52;;;;;;;36.38;22.60;;;11.90;99.90;;;;;;5061944;28;20288;-71
2021/10/26 01:01:19;;;;;;;25.02;20.88;;;11.90;99.90;;;;;;5060056;28;20202;-71
2021/10/26 01:03:48;;;;;;;29.58;22.83;;;11.90;99.90;;;;;;5070472;28;20229;-71
2021/10/26 01:06:15;;;;;;;27.38;22.20;;;11.80;99.90;;;;;;5069467;28;20204;-71
2021/10/26 01:08:43;;;;;;;28.35;24.27;;;11.90;99.90;;;;;;5070762;28;20209;-71
2021/10/26 01:11:10;;;;;;;29.90;21.50;;;12.00;99.90;;;;;;5059980;28;20538;-70
2021/10/26 01:13:40;;;;;;;25.98;21.90;;;12.00;99.90;;;;;;5063461;28;20651;-71
2021/10/26 01:16:07;;;;;;;29.33;21.95;;;12.10;99.90;;;;;;5066348;28;20582;-71
2021/10/26 01:18:34;;;;;;;27.95;22.65;;;12.00;99.90;;;;;;5063443;28;20210;-71
2021/10/26 01:21:03;;;;;;;26.35;20.88;;;12.10;99.90;;;;;;5068981;28;20211;-71
2021/10/26 01:23:30;;;;;;;24.95;22.25;;;12.10;99.90;;;;;;5062544;28;20222;-70
2021/10/26 01:25:57;;;;;;;27.70;21.60;;;12.10;99.90;;;;;;5069775;28;20208;-71
2021/10/26 01:28:26;;;;;;;29.27;21.00;;;12.10;99.90;;;;;;5060845;28;20218;-71
2021/10/26 01:30:53;;;;;;;29.40;22.25;;;12.20;99.90;;;;;;5065440;28;20206;-70
2021/10/26 01:33:21;;;;;;;29.40;21.75;;;12.20;99.90;;;;;;5070411;28;20224;-70
2021/10/26 01:35:49;;;;;;;28.48;22.80;;;12.30;99.90;;;;;;5069445;28;20564;-72
2021/10/26 01:38:18;;;;;;;31.08;22.45;;;12.20;99.90;;;;;;5066036;28;20231;-71
2021/10/26 01:40:46;;;;;;;32.42;24.90;;;12.20;99.90;;;;;;5074819;28;20214;-71
2021/10/26 01:43:13;;;;;;;27.92;22.50;;;12.20;99.90;;;;;;5069630;28;20254;-71
2021/10/26 01:45:40;;;;;;;23.80;21.23;;;12.30;99.90;;;;;;5069773;28;20201;-71
2021/10/26 01:48:08;;;;;;;31.80;23.92;;;12.20;99.90;;;;;;5064916;28;20554;-71
2021/10/26 01:50:36;;;;;;;34.97;22.77;;;12.30;99.90;;;;;;5072766;28;20257;-70
2021/10/26 01:53:03;;;;;;;34.10;21.77;;;12.30;99.90;;;;;;5073161;28;20242;-70
2021/10/26 01:55:32;;;;;;;31.52;24.35;;;12.20;99.90;;;;;;5072819;28;20213;-71
2021/10/26 01:57:59;;;;;;;29.42;23.23;;;12.20;99.90;;;;;;5061313;28;20219;-71
2021/10/26 02:00:26;;;;;;;32.80;26.40;;;12.20;99.90;;;;;;5063925;28;20204;-71
2021/10/26 02:02:54;;;;;;;31.80;23.42;;;12.20;99.90;;;;;;5068135;28;20220;-71
2021/10/26 02:05:21;;;;;;;28.42;22.85;;;12.20;99.90;;;;;;5087387;28;20295;-71
2021/10/26 02:07:49;;;;;;;32.45;23.70;;;12.10;99.90;;;;;;5069216;28;20205;-71
2021/10/26 02:10:17;;;;;;;29.38;24.48;;;12.30;99.90;;;;;;5070739;28;20209;-71
2021/10/26 02:12:46;;;;;;;26.88;22.45;;;12.20;99.90;;;;;;5077990;28;20224;-70
2021/10/26 02:15:13;;;;;;;31.42;24.40;;;12.30;99.90;;;;;;5070882;28;20205;-71
2021/10/26 02:17:41;;;;;;;27.58;22.15;;;12.30;99.90;;;;;;5082830;28;20537;-71
2021/10/26 02:20:09;;;;;;;31.63;24.33;;;12.40;99.90;;;;;;5076782;28;20213;-71
2021/10/26 02:22:36;;;;;;;34.97;26.00;;;12.40;99.90;;;;;;5071823;28;20247;-71
2021/10/26 02:25:04;;;;;;;33.92;24.80;;;12.30;99.90;;;;;;5070087;28;20686;-71
2021/10/26 02:27:31;;;;;;;27.38;23.10;;;12.30;99.90;;;;;;5075064;28;20657;-71
2021/10/26 02:30:00;;;;;;;30.88;23.73;;;12.40;99.90;;;;;;5072558;28;20206;-70
2021/10/26 02:32:27;;;;;;;28.35;22.02;;;12.50;99.90;;;;;;5073911;28;20555;-70
2021/10/26 02:34:55;;;;;;;30.02;22.52;;;12.50;99.90;;;;;;5066368;28;20206;-71
2021/10/26 02:37:24;;;;;;;30.13;23.63;;;12.50;99.90;;;;;;5080491;28;20237;-71
2021/10/26 02:39:51;;;;;;;32.95;26.15;;;12.50;99.90;;;;;;5080342;28;20225;-71
2021/10/26 02:42:18;;;;;;;32.95;25.75;;;12.30;99.90;;;;;;5072232;28;20233;-71
2021/10/26 02:44:45;;;;;;;33.90;26.70;;;12.30;99.90;;;;;;5064077;28;20213;-71
2021/10/26 02:47:14;;;;;;;38.88;24.90;;;12.20;99.90;;;;;;5074055;28;20212;-70
2021/10/26 02:49:41;;;;;;;45.20;25.30;;;12.20;99.90;;;;;;5068241;28;20216;-70
2021/10/26 02:52:08;;;;;;;32.50;25.27;;;12.10;99.90;;;;;;5060303;28;20230;-71
2021/10/26 02:54:36;;;;;;;32.35;22.75;;;12.10;99.90;;;;;;5072096;28;20702;-71
2021/10/26 02:57:03;;;;;;;41.30;25.75;;;12.10;99.90;;;;;;5057372;28;20238;-71
2021/10/26 02:59:30;;;;;;;30.52;24.38;;;12.20;99.90;;;;;;5055649;28;20555;-70
2021/10/26 03:01:58;;;;;;;41.97;25.98;;;12.10;99.90;;;;;;5063915;28;20221;-71
2021/10/26 03:04:26;;;;;;;39.33;26.23;;;12.10;99.90;;;;;;5081909;28;20197;-70
2021/10/26 03:06:53;;;;;;;31.50;25.27;;;12.10;99.90;;;;;;5061566;28;20198;-71
2021/10/26 03:09:20;;;;;;;35.55;27.10;;;12.10;99.90;;;;;;5068789;28;20194;-71
2021/10/26 03:11:49;;;;;;;31.80;25.67;;;12.10;99.90;;;;;;5076601;28;20230;-72
2021/10/26 03:14:17;;;;;;;35.45;25.05;;;12.00;99.90;;;;;;5080521;28;20670;-70
2021/10/26 03:16:44;;;;;;;38.88;27.23;;;12.00;99.90;;;;;;5077858;28;20224;-71
2021/10/26 03:19:11;;;;;;;37.78;25.02;;;12.00;99.90;;;;;;5073364;28;20205;-70
2021/10/26 03:21:40;;;;;;;35.70;25.77;;;12.00;99.90;;;;;;5060233;28;20203;-71
2021/10/26 03:24:08;;;;;;;31.05;25.10;;;12.00;99.90;;;;;;5069023;28;20201;-72
2021/10/26 03:26:35;;;;;;;36.83;29.40;;;12.10;99.90;;;;;;5066853;28;20197;-71
2021/10/26 03:29:02;;;;;;;35.75;26.80;;;12.10;99.90;;;;;;5064187;28;20599;-71
2021/10/26 03:31:29;;;;;;;38.65;28.67;;;12.10;99.90;;;;;;5071112;28;20209;-71
2021/10/26 03:33:56;;;;;;;38.25;27.83;;;12.10;99.90;;;;;;5073047;28;20659;-71
2021/10/26 03:36:26;;;;;;;38.92;28.98;;;12.10;99.90;;;;;;5059584;28;20192;-71
2021/10/26 03:38:54;;;;;;;30.65;23.65;;;12.00;99.90;;;;;;5064330;28;20223;-70
2021/10/26 03:41:23;;;;;;;39.30;27.52;;;12.00;99.90;;;;;;5060418;28;20210;-71
2021/10/26 03:43:51;;;;;;;38.00;25.25;;;12.00;99.90;;;;;;5072219;28;20552;-70
2021/10/26 03:46:43;;;;;;;41.85;28.45;;;12.00;99.90;;;;;;5060270;28;20207;-70
2021/10/26 03:49:10;;;;;;;33.95;26.67;;;12.00;99.90;;;;;;5059226;28;20541;-71
2021/10/26 03:51:37;;;;;;;36.30;27.58;;;11.90;99.90;;;;;;5061750;28;20202;-71
2021/10/26 03:54:06;;;;;;;36.90;26.52;;;11.90;99.90;;;;;;5058836;28;20234;-71
2021/10/26 03:56:33;;;;;;;34.30;27.30;;;11.80;99.90;;;;;;5063621;28;20213;-71
2021/10/26 03:59:03;;;;;;;37.30;28.05;;;11.80;99.90;;;;;;5070076;28;20738;-70
2021/10/26 04:01:31;;;;;;;39.40;29.08;;;11.80;99.90;;;;;;5058150;28;20200;-70
2021/10/26 04:03:58;;;;;;;40.78;28.70;;;11.80;99.90;;;;;;5069372;28;20194;-71
2021/10/26 04:06:27;;;;;;;32.13;23.70;;;11.80;99.90;;;;;;5062060;28;20199;-70
2021/10/26 04:08:58;;;;;;;36.58;26.38;;;11.80;99.90;;;;;;5059516;28;20289;-71
2021/10/26 04:11:28;;;;;;;39.65;26.65;;;11.80;99.90;;;;;;5059314;28;20621;-72
2021/10/26 04:13:55;;;;;;;35.47;26.95;;;11.80;99.90;;;;;;5065479;28;20283;-71
2021/10/26 04:16:23;;;;;;;34.80;26.35;;;11.80;99.90;;;;;;5068700;28;20202;-70
2021/10/26 04:18:51;;;;;;;35.53;26.33;;;11.90;99.90;;;;;;5072517;28;20369;-71
2021/10/26 04:21:18;;;;;;;32.20;23.70;;;11.90;99.90;;;;;;5073512;28;20205;-71
2021/10/26 04:23:47;;;;;;;44.70;26.65;;;11.80;99.90;;;;;;5064401;28;20238;-71
2021/10/26 04:26:16;;;;;;;40.40;29.75;;;11.80;99.90;;;;;;5062063;28;20232;-71
2021/10/26 04:28:44;;;;;;;34.42;26.05;;;11.80;99.90;;;;;;5059086;28;20212;-71
2021/10/26 04:31:12;;;;;;;47.05;28.85;;;11.70;99.90;;;;;;5063300;28;20213;-71
2021/10/26 04:33:40;;;;;;;41.25;28.02;;;11.70;99.90;;;;;;5072191;28;20248;-71
2021/10/26 04:36:07;;;;;;;39.95;27.90;;;11.60;99.90;;;;;;5061395;28;20208;-71
2021/10/26 04:38:34;;;;;;;44.03;26.95;;;11.60;99.90;;;;;;5058316;28;20678;-71
2021/10/26 04:41:07;;;;;;;38.33;26.20;;;11.60;99.90;;;;;;5054632;28;20203;-71
2021/10/26 04:43:34;;;;;;;38.47;27.95;;;11.60;99.90;;;;;;5061730;28;20220;-70
2021/10/26 04:46:03;;;;;;;34.30;29.02;;;11.60;99.90;;;;;;5061047;28;20220;-70
2021/10/26 04:48:30;;;;;;;41.90;29.50;;;11.50;99.90;;;;;;5069198;28;20244;-71
2021/10/26 04:50:57;;;;;;;44.55;30.80;;;11.50;99.90;;;;;;5060870;28;20215;-70
2021/10/26 04:53:25;;;;;;;45.53;29.40;;;11.50;99.90;;;;;;5065224;28;20217;-74
2021/10/26 04:55:52;;;;;;;42.45;28.83;;;11.50;99.90;;;;;;5061786;28;20565;-75
2021/10/26 04:58:19;;;;;;;38.88;27.58;;;11.60;99.90;;;;;;5062767;28;20780;-75
2021/10/26 05:00:46;;;;;;;45.22;31.60;;;11.60;99.90;;;;;;5069364;28;20227;-77
2021/10/26 05:03:15;;;;;;;41.92;29.40;;;11.60;99.90;;;;;;5068416;28;20240;-75
2021/10/26 05:05:42;;;;;;;45.15;31.15;;;11.50;99.90;;;;;;5070243;28;20208;-76
2021/10/26 05:08:10;;;;;;;44.75;28.75;;;11.50;99.90;;;;;;5065390;28;20214;-76
2021/10/26 05:10:37;;;;;;;45.78;31.42;;;11.50;99.90;;;;;;5070431;28;20205;-76
2021/10/26 05:13:04;;;;;;;40.80;30.65;;;11.50;99.90;;;;;;5072187;28;20232;-72
2021/10/26 05:15:31;;;;;;;41.83;30.75;;;11.50;99.90;;;;;;5069382;28;20636;-73
2021/10/26 05:17:58;;;;;;;45.25;30.98;;;11.50;99.90;;;;;;5073352;28;20290;-72
2021/10/26 05:20:28;;;;;;;46.00;29.23;;;11.50;99.90;;;;;;5069276;28;20929;-73
2021/10/26 05:22:56;;;;;;;37.53;28.17;;;11.50;99.90;;;;;;5064419;28;20301;-73
2021/10/26 05:25:23;;;;;;;38.10;25.90;;;11.60;99.90;;;;;;5078730;28;20213;-72
2021/10/26 05:27:51;;;;;;;36.05;26.85;;;11.60;99.90;;;;;;5072709;28;20216;-73
2021/10/26 05:30:19;;;;;;;35.15;27.08;;;11.70;99.90;;;;;;5060933;28;20209;-73
2021/10/26 05:32:46;;;;;;;39.13;30.20;;;11.70;99.90;;;;;;5074678;28;20227;-73
2021/10/26 05:35:13;;;;;;;37.30;29.90;;;11.80;99.90;;;;;;5067175;28;20195;-75
2021/10/26 05:37:42;;;;;;;40.05;28.45;;;11.70;99.90;;;;;;5063699;28;20599;-74
2021/10/26 05:40:10;;;;;;;40.63;28.30;;;11.80;99.90;;;;;;5066225;28;20723;-72
2021/10/26 05:42:38;;;;;;;42.30;31.23;;;11.70;99.90;;;;;;5062906;28;20224;-73
2021/10/26 05:45:06;;;;;;;34.72;27.40;;;11.80;99.90;;;;;;5061326;28;20280;-76
2021/10/26 05:47:39;;;;;;;41.15;28.73;;;11.80;99.90;;;;;;5067888;28;20575;-73
2021/10/26 05:50:07;;;;;;;36.00;27.73;;;11.90;99.90;;;;;;5061137;28;20284;-72
2021/10/26 05:52:35;;;;;;;41.97;28.70;;;12.00;99.90;;;;;;5062349;28;20232;-72
2021/10/26 05:55:03;;;;;;;40.28;26.20;;;11.90;99.90;;;;;;5068817;28;20260;-72
2021/10/26 05:57:32;;;;;;;35.28;26.70;;;11.90;99.90;;;;;;5062874;28;20232;-72
2021/10/26 05:59:59;;;;;;;46.03;28.25;;;11.90;99.90;;;;;;5061380;28;20210;-71
2021/10/26 06:02:26;;;;;;;39.33;25.42;;;11.80;99.90;;;;;;5070969;28;20230;-73
2021/10/26 06:04:54;;;;;;;41.85;27.63;;;12.00;99.90;;;;;;5063247;28;20210;-73
2021/10/26 06:07:22;;;;;;;33.78;26.65;;;12.00;99.90;;;;;;5065666;28;20196;-73
2021/10/26 06:09:49;;;;;;;33.97;25.05;;;12.00;99.90;;;;;;5061676;28;20209;-73
2021/10/26 06:12:23;;;;;;;37.47;27.10;;;12.00;99.90;;;;;;5067166;28;20229;-74
2021/10/26 06:14:50;;;;;;;37.58;27.52;;;12.00;99.90;;;;;;5063969;28;20210;-75
2021/10/26 06:17:17;;;;;;;38.58;27.58;;;11.90;99.90;;;;;;5071969;28;20678;-74
2021/10/26 06:19:45;;;;;;;42.38;28.35;;;12.00;99.90;;;;;;5069899;28;20211;-74
2021/10/26 06:22:13;;;;;;;43.72;28.85;;;12.00;99.90;;;;;;5058246;28;20242;-74
2021/10/26 06:24:42;;;;;;;37.50;25.92;;;12.00;99.90;;;;;;5071554;28;20204;-74
2021/10/26 06:27:09;;;;;;;41.75;27.85;;;12.00;99.90;;;;;;5066358;28;20217;-75
2021/10/26 06:29:39;;;;;;;38.58;25.85;;;12.00;99.90;;;;;;5071362;28;21533;-74
2021/10/26 06:32:07;;;;;;;39.45;25.80;;;12.00;99.90;;;;;;5067314;28;20225;-75
2021/10/26 06:34:34;;;;;;;46.28;27.90;;;12.10;99.90;;;;;;5064576;28;20210;-73
2021/10/26 06:37:02;;;;;;;41.92;28.15;;;12.10;99.90;;;;;;5062921;28;20204;-74
2021/10/26 06:39:35;;;;;;;42.28;25.85;;;12.20;99.90;;;;;;5063328;28;20294;-73
2021/10/26 06:42:02;;;;;;;37.90;27.38;;;12.20;99.90;;;;;;5062274;28;20236;-73
2021/10/26 06:44:30;;;;;;;39.45;27.55;;;12.20;99.90;;;;;;5067116;28;20340;-73
2021/10/26 06:46:58;;;;;;;39.25;28.77;;;12.20;99.90;;;;;;5072947;28;20296;-72
2021/10/26 06:49:27;;;;;;;33.58;27.55;;;12.20;99.90;;;;;;5067971;28;20194;-72
2021/10/26 06:51:54;;;;;;;39.85;25.73;;;12.30;99.90;;;;;;5064130;28;20256;-75
2021/10/26 06:54:21;;;;;;;43.88;28.60;;;12.20;99.90;;;;;;5063810;28;20672;-72
2021/10/26 06:56:48;;;;;;;41.70;29.40;;;12.30;99.90;;;;;;5068822;28;20207;-72
2021/10/26 06:59:16;;;;;;;35.25;25.42;;;12.30;99.90;;;;;;5061439;28;20273;-73
2021/10/26 07:01:43;;;;;;;39.30;27.88;;;12.30;99.90;;;;;;5058014;28;20207;-73
2021/10/26 07:04:13;;;;;;;32.30;22.20;;;12.30;99.90;;;;;;5062756;28;20230;-73
2021/10/26 07:06:40;;;;;;;38.08;27.58;;;12.40;99.90;;;;;;5063875;28;20206;-71
2021/10/26 07:09:07;;;;;;;32.33;24.42;;;12.60;99.90;;;;;;5064556;28;20300;-73
2021/10/26 07:11:34;;;;;;;44.30;25.08;;;12.60;99.90;;;;;;5061444;28;20194;-73
2021/10/26 07:14:02;;;;;;;32.05;24.08;;;12.60;99.90;;;;;;5067186;28;20206;-73
2021/10/26 07:16:30;;;;;;;38.15;28.20;;;12.50;99.90;;;;;;5072594;28;20205;-73
2021/10/26 07:18:57;;;;;;;33.88;25.35;;;12.60;99.90;;;;;;5072494;28;20706;-72
2021/10/26 07:21:26;;;;;;;35.03;26.75;;;12.60;99.90;;;;;;5066294;28;20276;-73
2021/10/26 07:23:53;;;;;;;30.25;25.33;;;12.60;99.90;;;;;;5067451;28;20220;-74
2021/10/26 07:26:21;;;;;;;31.98;24.15;;;12.60;99.90;;;;;;5075754;28;20198;-73
2021/10/26 07:28:50;;;;;;;39.03;24.08;;;12.60;99.90;;;;;;5074915;28;20247;-73
2021/10/26 07:31:23;;;;;;;29.80;23.40;;;12.60;99.90;;;;;;5058008;28;20203;-73
2021/10/26 07:33:51;;;;;;;29.02;21.48;;;12.60;99.90;;;;;;5075942;28;20225;-73
2021/10/26 07:36:23;;;;;;;30.75;22.75;;;12.70;99.90;;;;;;5060371;28;20214;-74
2021/10/26 07:38:58;;;;;;;33.47;23.70;;;12.80;99.90;;;;;;5070234;28;20682;-73
2021/10/26 07:41:25;;;;;;;32.20;22.80;;;12.90;99.90;;;;;;5054816;28;20565;-75
2021/10/26 07:43:52;;;;;;;31.80;20.92;;;13.00;99.90;;;;;;5085510;28;20231;-73
2021/10/26 07:46:19;;;;;;;29.65;21.67;;;13.00;99.90;;;;;;5057224;28;20199;-73
2021/10/26 07:48:47;;;;;;;29.38;19.92;;;13.00;99.90;;;;;;5077561;28;20194;-73
2021/10/26 07:51:14;;;;;;;27.35;21.60;;;13.00;99.90;;;;;;5072214;28;20202;-74
2021/10/26 07:53:42;;;;;;;27.88;19.52;;;12.90;99.90;;;;;;5070142;28;20222;-73
2021/10/26 07:56:11;;;;;;;22.75;18.02;;;12.90;99.90;;;;;;5077767;28;20216;-73
2021/10/26 07:58:40;;;;;;;26.58;19.13;;;12.90;99.90;;;;;;5065371;28;20222;-71
2021/10/26 08:01:07;;;;;;;31.13;22.40;;;13.00;99.90;;;;;;5072376;28;20228;-74
2021/10/26 08:03:35;;;;;;;25.98;19.35;;;13.00;99.90;;;;;;5073721;28;20267;-71
2021/10/26 08:06:03;;;;;;;27.42;19.67;;;13.00;99.90;;;;;;5073808;28;20312;-74
2021/10/26 08:08:30;;;;;;;27.42;19.98;;;13.10;99.90;;;;;;5071628;28;20569;-73
2021/10/26 08:10:58;;;;;;;26.90;18.42;;;13.10;99.90;;;;;;5070834;28;20286;-75
2021/10/26 08:13:26;;;;;;;30.05;21.48;;;13.10;99.90;;;;;;5058699;28;20636;-72
2021/10/26 08:15:53;;;;;;;26.92;18.95;;;13.10;99.90;;;;;;5061271;28;20209;-73
2021/10/26 08:18:21;;;;;;;24.90;18.50;;;13.10;99.90;;;;;;5072206;28;20220;-73
2021/10/26 08:20:49;;;;;;;31.77;20.30;;;13.10;99.90;;;;;;5063081;28;20225;-73
2021/10/26 08:23:19;;;;;;;25.63;19.35;;;13.20;99.90;;;;;;5055375;28;20257;-73
2021/10/26 08:25:49;;;;;;;25.88;20.13;;;13.20;99.90;;;;;;5060901;28;20389;-74
2021/10/26 08:28:17;;;;;;;23.30;16.95;;;13.30;99.90;;;;;;5066961;28;20214;-72
2021/10/26 08:30:51;;;;;;;25.52;18.73;;;13.50;99.90;;;;;;5079006;28;20209;-72
2021/10/26 08:33:23;;;;;;;24.02;19.17;;;13.60;99.90;;;;;;5050547;28;20214;-72
2021/10/26 08:35:51;;;;;;;26.55;19.52;;;13.70;99.90;;;;;;5066136;28;20290;-73
2021/10/26 08:38:19;;;;;;;26.85;18.27;;;13.80;99.90;;;;;;5063258;28;20207;-73
2021/10/26 08:40:49;;;;;;;24.30;18.02;;;13.80;99.90;;;;;;5070905;28;20210;-73
2021/10/26 08:43:17;;;;;;;33.13;20.52;;;13.80;99.90;;;;;;5081681;28;20219;-71
2021/10/26 08:45:48;;;;;;;29.83;20.90;;;13.70;99.90;;;;;;5075646;28;20209;-73
2021/10/26 08:48:20;;;;;;;28.13;20.08;;;13.70;99.90;;;;;;5067605;28;20196;-70
2021/10/26 08:50:49;;;;;;;30.08;20.98;;;13.80;99.90;;;;;;5077655;28;20578;-71
2021/10/26 08:53:17;;;;;;;28.17;18.73;;;13.60;99.90;;;;;;5071644;28;20219;-72
2021/10/26 08:55:44;;;;;;;29.08;19.48;;;13.80;99.90;;;;;;5064491;28;20195;-72
2021/10/26 08:58:12;;;;;;;28.67;21.00;;;14.10;99.90;;;;;;5081418;28;20658;-71
2021/10/26 09:00:40;;;;;;;25.00;18.95;;;14.40;99.90;;;;;;5076494;28;20235;-72
2021/10/26 09:03:24;;;;;;;23.75;19.30;;;14.80;99.90;;;;;;5081567;28;20245;-71
2021/10/26 09:05:54;;;;;;;24.83;19.67;;;14.90;99.90;;;;;;5077216;28;20697;-72
2021/10/26 09:08:23;;;;;;;26.02;19.67;;;14.90;99.90;;;;;;5075421;28;20645;-70
2021/10/26 09:10:52;;;;;;;22.35;17.77;;;14.90;99.90;;;;;;5067996;28;20295;-72
2021/10/26 09:16:43;;;;;;;21.38;17.40;;;15.00;99.90;;;;;;5069032;28;20537;-71
2021/10/26 09:19:16;;;;;;;23.50;19.38;;;15.00;99.90;;;;;;5066025;28;20272;-73
2021/10/26 09:21:45;;;;;;;30.27;20.75;;;15.00;99.90;;;;;;5068515;28;20646;-72
2021/10/26 09:24:15;;;;;;;24.30;17.80;;;15.00;99.90;;;;;;5070007;28;20214;-73
2021/10/26 09:26:50;;;;;;;23.55;17.38;;;15.00;99.90;;;;;;5078294;28;20206;-72
2021/10/26 09:29:22;;;;;;;29.33;19.15;;;15.00;99.90;;;;;;5075322;28;20191;-72
2021/10/26 09:31:50;;;;;;;25.55;16.77;;;14.90;99.90;;;;;;5068109;28;20299;-71
2021/10/26 09:34:20;;;;;;;23.45;18.10;;;14.70;99.90;;;;;;5074230;28;20200;-71
2021/10/26 09:36:49;;;;;;;25.27;18.92;;;14.70;99.90;;;;;;5063986;28;20213;-70
2021/10/26 09:39:19;;;;;;;30.50;17.35;;;15.10;99.90;;;;;;5065050;28;20670;-70
2021/10/26 09:42:14;;;;;;;23.35;17.15;;;15.50;99.90;;;;;;5065004;28;20206;-72
2021/10/26 09:44:45;;;;;;;28.23;17.77;;;15.50;99.90;;;;;;5034971;28;20685;-71
2021/10/26 09:47:19;;;;;;;22.75;17.73;;;15.80;99.90;;;;;;5071860;28;20246;-71
2021/10/26 09:49:54;;;;;;;27.23;17.92;;;15.50;99.90;;;;;;5049365;28;20215;-71
2021/10/26 09:52:25;;;;;;;25.65;18.77;;;15.30;99.90;;;;;;5062878;28;20237;-72
2021/10/26 09:55:18;;;;;;;23.77;18.25;;;15.10;99.90;;;;;;5060296;28;20208;-72
2021/10/26 09:57:47;;;;;;;21.92;18.63;;;14.90;99.90;;;;;;5071179;28;20258;-73
2021/10/26 10:00:25;;;;;;;23.67;17.65;;;14.90;99.90;;;;;;5069204;28;20207;-72
2021/10/26 10:03:00;;;;;;;23.20;16.50;;;15.00;99.90;;;;;;5067630;28;20587;-72
2021/10/26 10:05:30;;;;;;;24.70;18.27;;;15.00;99.90;;;;;;5069354;28;20199;-73
2021/10/26 10:07:59;;;;;;;23.98;17.17;;;14.80;99.90;;;;;;5067440;28;20199;-73
2021/10/26 10:10:37;;;;;;;25.65;17.23;;;14.80;99.90;;;;;;5067939;28;20290;-73
2021/10/26 10:13:05;;;;;;;24.00;17.20;;;14.70;99.90;;;;;;5060082;28;20246;-73
2021/10/26 10:15:33;;;;;;;29.75;18.10;;;14.80;99.90;;;;;;5079020;28;20203;-73
2021/10/26 10:18:01;;;;;;;21.67;17.73;;;14.90;99.90;;;;;;5069376;28;20210;-71
2021/10/26 10:20:30;;;;;;;28.67;18.98;;;14.90;99.90;;;;;;5067285;28;21722;-71
2021/10/26 10:22:59;;;;;;;24.27;17.77;;;15.00;99.90;;;;;;5071074;28;20705;-72
2021/10/26 10:25:28;;;;;;;23.17;18.13;;;15.20;99.90;;;;;;5066505;28;20618;-73
2021/10/26 10:27:57;;;;;;;28.50;20.33;;;15.20;99.90;;;;;;5080278;28;20632;-70
2021/10/26 10:30:24;;;;;;;28.38;19.75;;;15.10;99.90;;;;;;5068799;28;20205;-71
2021/10/26 10:32:52;;;;;;;24.90;18.60;;;15.10;99.90;;;;;;5068587;28;20302;-74
2021/10/26 10:35:20;;;;;;;32.72;20.20;;;15.10;99.90;;;;;;5074939;28;20651;-72
2021/10/26 10:37:53;;;;;;;23.30;18.15;;;15.10;99.90;;;;;;5071147;28;20212;-72
2021/10/26 10:40:25;;;;;;;22.98;16.55;;;15.00;99.90;;;;;;5079991;28;20223;-71
2021/10/26 10:42:53;;;;;;;21.40;15.77;;;15.00;99.90;;;;;;5069195;28;20230;-71
2021/10/26 10:45:25;;;;;;;24.35;16.00;;;15.00;99.90;;;;;;5074703;28;20211;-71
2021/10/26 10:47:54;;;;;;;22.40;15.75;;;14.90;99.90;;;;;;5069800;28;20196;-74
2021/10/26 10:50:36;;;;;;;20.65;15.10;;;14.80;99.90;;;;;;5060106;28;20210;-72
2021/10/26 10:53:14;;;;;;;23.42;14.63;;;14.80;99.90;;;;;;5070575;28;20247;-72
2021/10/26 10:55:45;;;;;;;24.48;15.30;;;14.80;99.90;;;;;;5073799;28;20222;-71
2021/10/26 10:58:40;;;;;;;19.45;14.57;;;14.70;99.90;;;;;;5065814;28;20547;-72
2021/10/26 11:01:34;;;;;;;22.20;13.73;;;14.60;99.90;;;;;;5067883;28;20203;-71
2021/10/26 11:04:29;;;;;;;19.85;13.98;;;14.50;99.90;;;;;;5050826;28;20203;-71
2021/10/26 11:06:58;;;;;;;17.33;13.75;;;14.50;99.90;;;;;;5068149;28;20203;-72
2021/10/26 11:09:53;;;;;;;20.25;11.32;;;14.40;99.90;;;;;;5060077;28;20557;-72
2021/10/26 11:12:32;;;;;;;18.92;13.55;;;14.50;99.90;;;;;;5020976;28;20234;-72
2021/10/26 11:15:01;;;;;;;17.80;13.00;;;14.60;99.90;;;;;;5082083;28;20286;-73
2021/10/26 11:17:59;;;;;;;18.52;13.70;;;14.90;99.90;;;;;;5065494;28;20204;-71
2021/10/26 11:20:46;;;;;;;20.30;13.55;;;15.10;99.90;;;;;;5060210;28;20219;-72
2021/10/26 11:23:31;;;;;;;17.52;12.57;;;15.30;99.90;;;;;;5061557;28;20230;-72
2021/10/26 11:26:15;;;;;;;22.92;13.45;;;15.40;99.90;;;;;;5054441;28;20225;-72
2021/10/26 11:28:57;;;;;;;17.50;12.10;;;15.40;99.90;;;;;;5055171;28;20959;-72
2021/10/26 11:31:27;;;;;;;21.95;12.45;;;15.20;99.90;;;;;;5058117;28;20195;-72
2021/10/26 11:34:03;;;;;;;17.83;12.88;;;15.00;99.90;;;;;;5067244;28;20274;-74
2021/10/26 11:36:33;;;;;;;21.98;12.55;;;15.10;99.90;;;;;;5065767;28;20253;-74
2021/10/26 11:39:04;;;;;;;17.15;10.85;;;15.20;99.90;;;;;;5056795;28;20204;-72
2021/10/26 11:41:35;;;;;;;16.83;11.15;;;15.20;99.90;;;;;;5063267;28;20193;-72
2021/10/26 11:44:04;;;;;;;15.88;11.10;;;15.30;99.90;;;;;;5056794;28;20272;-73
2021/10/26 11:46:34;;;;;;;14.95;10.90;;;15.50;99.90;;;;;;5055276;28;20227;-73
2021/10/26 11:49:06;;;;;;;14.98;10.05;;;15.60;99.90;;;;;;5057810;28;20220;-73
2021/10/26 11:51:37;;;;;;;15.07;9.90;;;15.70;99.90;;;;;;5058970;28;20683;-73
2021/10/26 11:54:07;;;;;;;15.35;9.70;;;15.50;99.90;;;;;;5066178;28;20211;-73
2021/10/26 11:56:38;;;;;;;17.10;9.85;;;15.30;99.90;;;;;;5064710;28;20204;-72
2021/10/26 11:59:08;;;;;;;20.10;11.30;;;15.30;99.90;;;;;;5064341;28;20893;-74
2021/10/26 12:01:45;;;;;;;15.35;10.00;;;15.30;99.90;;;;;;5070425;28;20239;-75
2021/10/26 12:04:27;;;;;;;15.43;10.18;;;15.40;99.90;;;;;;5072673;28;20207;-74
2021/10/26 12:06:57;;;;;;;11.55;8.63;;;15.50;99.90;;;;;;5063664;28;20289;-73
2021/10/26 12:09:37;;;;;;;13.57;9.10;;;15.70;99.90;;;;;;5066715;28;20276;-74
2021/10/26 12:12:08;;;;;;;14.50;8.80;;;15.70;99.90;;;;;;5085780;28;20233;-74
2021/10/26 12:14:44;;;;;;;14.25;8.88;;;15.80;99.90;;;;;;5053849;28;20256;-74
2021/10/26 12:17:19;;;;;;;10.45;8.73;;;15.70;99.90;;;;;;5065114;28;20199;-73
2021/10/26 12:19:50;;;;;;;17.98;8.60;;;15.60;99.90;;;;;;5064120;28;20228;-73
2021/10/26 12:22:20;;;;;;;10.27;7.85;;;15.60;99.90;;;;;;5057674;28;20227;-73
2021/10/26 12:24:54;;;;;;;19.33;9.02;;;15.60;99.90;;;;;;5064045;28;20193;-74
2021/10/26 12:27:32;;;;;;;16.58;9.10;;;15.50;99.90;;;;;;5071648;28;20591;-73
2021/10/26 12:30:27;;;;;;;17.20;10.00;;;15.40;99.90;;;;;;5055559;28;20195;-74
2021/10/26 12:32:59;;;;;;;11.68;8.45;;;15.40;99.90;;;;;;5053786;28;20306;-73
2021/10/26 12:35:28;;;;;;;16.80;10.10;;;15.60;99.90;;;;;;5058053;28;20614;-73
2021/10/26 12:38:13;;;;;;;13.85;8.38;;;15.60;99.90;;;;;;5061386;28;20215;-73
2021/10/26 12:40:43;;;;;;;15.45;10.57;;;15.70;99.90;;;;;;5063302;28;20216;-73
2021/10/26 12:43:12;;;;;;;17.50;11.00;;;15.80;99.90;;;;;;5060218;28;20224;-73
2021/10/26 12:45:42;;;;;;;13.48;9.63;;;15.90;99.90;;;;;;5055335;28;20204;-73